Time;durP1;ratioP1;P1;durP2;ratioP2;P2;SDS_P1;SDS_P2;PMS_P1;PMS_P2;Temp;Humidity;BMP_temperature;BMP_pressure;BME280_temperature;BME280_humidity;BME280_pressure;Samples;Min_cycle;Max_cycle;Signal;HPM_P1;HPM_P2
2022/02/07 00:00:25;;;;;;;5.90;1.35;;;4.10;94.50;;;;;;6168149;23;20025;-89
2022/02/07 00:05:25;;;;;;;13.50;1.75;;;4.10;94.50;;;;;;6144633;23;20080;-87
2022/02/07 00:07:51;;;;;;;12.65;2.40;;;4.00;94.50;;;;;;6143763;23;20048;-88
2022/02/07 00:10:16;;;;;;;9.52;1.67;;;4.00;94.50;;;;;;6143663;23;20020;-88
2022/02/07 00:12:45;;;;;;;5.72;1.15;;;4.00;94.50;;;;;;6142767;23;20028;-88
2022/02/07 00:15:11;;;;;;;8.75;1.20;;;4.00;94.50;;;;;;6142851;23;20466;-88
2022/02/07 00:17:37;;;;;;;5.95;1.60;;;4.00;94.50;;;;;;6142195;23;20050;-88
2022/02/07 00:20:08;;;;;;;8.23;1.02;;;4.00;94.50;;;;;;6142549;23;20032;-87
2022/02/07 00:22:33;;;;;;;4.70;1.23;;;3.90;94.40;;;;;;6191263;23;20063;-88
2022/02/07 00:24:59;;;;;;;7.18;1.05;;;3.90;94.40;;;;;;6142318;23;20097;-88
2022/02/07 00:27:25;;;;;;;6.68;1.20;;;3.90;94.40;;;;;;6167118;23;20056;-85
2022/02/07 00:29:50;;;;;;;5.78;1.20;;;3.90;94.40;;;;;;6141646;23;20013;-87
2022/02/07 00:32:16;;;;;;;5.90;0.98;;;3.80;94.40;;;;;;6117407;23;20024;-87
2022/02/07 00:34:42;;;;;;;8.10;1.20;;;3.90;94.50;;;;;;6142160;23;20017;-87
2022/02/07 00:37:07;;;;;;;7.18;1.40;;;3.90;94.50;;;;;;6142216;23;20020;-89
2022/02/07 00:39:43;;;;;;;9.90;1.60;;;3.90;94.40;;;;;;6167072;23;20044;-88
2022/02/07 00:42:18;;;;;;;12.10;1.88;;;3.90;94.50;;;;;;6145502;23;20028;-87
2022/02/07 00:44:45;;;;;;;9.32;2.20;;;3.90;94.40;;;;;;6148130;23;20024;-87
2022/02/07 00:47:11;;;;;;;15.05;2.33;;;3.90;94.50;;;;;;6191893;23;20021;-88
2022/02/07 00:49:37;;;;;;;10.27;2.10;;;3.90;94.50;;;;;;6142092;23;20392;-88
2022/02/07 00:52:03;;;;;;;15.00;3.35;;;3.80;94.50;;;;;;6166862;23;20068;-87
2022/02/07 00:54:28;;;;;;;17.00;3.80;;;3.90;94.50;;;;;;6141976;23;20025;-87
2022/02/07 00:56:54;;;;;;;11.40;2.42;;;3.90;94.60;;;;;;6193169;23;20525;-88
2022/02/07 00:59:19;;;;;;;18.05;2.80;;;3.90;94.60;;;;;;6118357;23;20020;-89
2022/02/07 01:01:47;;;;;;;16.92;2.65;;;3.90;94.70;;;;;;6143254;23;20025;-90
2022/02/07 01:04:13;;;;;;;15.48;2.65;;;3.90;94.80;;;;;;6125537;23;20064;-88
2022/02/07 01:06:39;;;;;;;12.98;2.50;;;3.90;94.80;;;;;;6142310;23;20020;-88
2022/02/07 01:11:55;;;;;;;14.55;2.50;;;3.80;94.80;;;;;;6168730;23;20025;-90
2022/02/07 01:52:02;;;;;;;9.35;2.15;;;3.90;95.00;;;;;;6142036;23;20040;-89
2022/02/07 01:56:56;;;;;;;17.17;3.40;;;3.90;95.10;;;;;;6166187;23;20056;-89
2022/02/07 01:59:22;;;;;;;12.40;1.75;;;4.00;95.10;;;;;;6142313;23;20025;-88
2022/02/07 02:01:48;;;;;;;11.00;2.33;;;3.90;95.20;;;;;;6141333;23;20048;-89
2022/02/07 02:04:13;;;;;;;17.58;2.92;;;3.90;95.20;;;;;;6141669;23;20013;-88
2022/02/07 02:06:39;;;;;;;14.43;2.58;;;4.00;95.30;;;;;;6116513;23;20036;-86
2022/02/07 02:09:05;;;;;;;15.55;2.83;;;4.00;95.30;;;;;;6165302;23;20021;-88
2022/02/07 02:11:33;;;;;;;18.95;2.72;;;4.00;95.30;;;;;;6140886;23;20348;-88
2022/02/07 02:37:31;;;;;;;14.43;2.85;;;4.10;95.40;;;;;;6166485;23;20021;-87
2022/02/07 02:45:36;;;;;;;20.00;2.70;;;4.10;95.40;;;;;;6144671;23;20017;-87
2022/02/07 02:48:07;;;;;;;19.70;3.75;;;4.10;95.40;;;;;;6165311;23;20087;-87
2022/02/07 02:50:34;;;;;;;20.85;3.20;;;4.10;95.40;;;;;;6166022;23;20092;-87
2022/02/07 02:53:03;;;;;;;13.15;2.80;;;4.20;95.40;;;;;;6141065;23;20091;-87
2022/02/07 02:55:32;;;;;;;16.33;3.58;;;4.20;95.40;;;;;;6165623;23;20024;-87
2022/02/07 02:58:00;;;;;;;13.30;2.88;;;4.20;95.40;;;;;;6142636;23;20440;-87
2022/02/07 03:00:27;;;;;;;13.55;3.25;;;4.20;95.40;;;;;;6192433;23;20052;-88
2022/02/07 03:02:55;;;;;;;18.83;3.53;;;4.30;95.40;;;;;;6167255;23;20041;-86
2022/02/07 03:05:21;;;;;;;17.75;3.58;;;4.30;95.40;;;;;;6143303;23;20019;-86
2022/02/07 03:07:49;;;;;;;22.25;4.43;;;4.30;95.40;;;;;;6142953;23;20063;-86
2022/02/07 03:10:23;;;;;;;18.50;3.38;;;4.30;95.40;;;;;;6167930;23;20017;-87
2022/02/07 03:18:29;;;;;;;23.83;4.43;;;4.40;95.40;;;;;;6146582;23;20392;-86
2022/02/07 03:20:55;;;;;;;25.40;4.53;;;4.40;95.40;;;;;;6143182;23;20021;-87
2022/02/07 03:23:20;;;;;;;16.17;3.38;;;4.40;95.40;;;;;;6143925;23;20017;-87
2022/02/07 03:25:46;;;;;;;15.00;3.65;;;4.40;95.40;;;;;;6143634;23;20318;-87
2022/02/07 03:28:12;;;;;;;15.75;4.15;;;4.40;95.40;;;;;;6142618;23;20028;-87
2022/02/07 03:30:38;;;;;;;17.58;4.00;;;4.50;95.40;;;;;;6142318;23;20021;-88
2022/02/07 03:33:04;;;;;;;17.95;4.53;;;4.40;95.40;;;;;;6166883;23;20017;-89
2022/02/07 03:35:30;;;;;;;18.67;4.55;;;4.40;95.40;;;;;;6167134;23;20156;-87
2022/02/07 03:37:56;;;;;;;26.88;4.25;;;4.40;95.40;;;;;;6167322;23;20017;-88
2022/02/07 03:40:21;;;;;;;22.50;4.45;;;4.50;95.50;;;;;;6142226;23;20029;-88
2022/02/07 03:42:47;;;;;;;16.25;3.05;;;4.40;95.50;;;;;;6142098;23;20379;-87
2022/02/07 03:45:13;;;;;;;19.70;3.92;;;4.50;95.50;;;;;;6165742;23;20017;-86
2022/02/07 03:47:39;;;;;;;24.55;4.85;;;4.50;95.60;;;;;;6167256;23;20036;-87
2022/02/07 03:50:05;;;;;;;22.63;5.03;;;4.50;95.60;;;;;;6166629;23;20048;-86
2022/02/07 03:52:31;;;;;;;22.20;4.88;;;4.50;95.60;;;;;;6167461;23;20044;-87
2022/02/07 03:54:56;;;;;;;18.38;4.28;;;4.60;95.70;;;;;;6118586;23;20021;-89
2022/02/07 03:57:22;;;;;;;23.23;5.68;;;4.60;95.70;;;;;;6143521;23;20047;-89
2022/02/07 03:59:48;;;;;;;21.17;3.83;;;4.60;95.70;;;;;;6144414;23;20017;-89
2022/02/07 04:02:13;;;;;;;23.45;4.20;;;4.60;95.80;;;;;;6144134;23;20486;-90
2022/02/07 04:04:40;;;;;;;23.60;4.10;;;4.60;95.80;;;;;;6144274;23;20017;-89
2022/02/07 04:07:08;;;;;;;25.50;5.15;;;4.60;95.80;;;;;;6143517;23;20013;-88
2022/02/07 04:09:39;;;;;;;18.70;4.07;;;4.60;95.80;;;;;;6119882;23;20021;-90
2022/02/07 04:12:13;;;;;;;26.90;4.85;;;4.60;95.90;;;;;;6169496;23;20021;-86
2022/02/07 04:14:39;;;;;;;18.00;3.80;;;4.60;95.90;;;;;;6170850;23;20021;-88
2022/02/07 04:17:08;;;;;;;22.75;4.40;;;4.60;96.00;;;;;;6144714;23;20021;-86
2022/02/07 04:19:35;;;;;;;26.63;4.03;;;4.60;96.00;;;;;;6140034;23;20025;-88
2022/02/07 04:22:03;;;;;;;20.80;4.57;;;4.60;96.00;;;;;;6163900;23;20056;-89
2022/02/07 04:24:29;;;;;;;30.20;4.93;;;4.60;96.00;;;;;;6140002;23;20104;-90
2022/02/07 04:26:55;;;;;;;23.73;5.20;;;4.60;96.00;;;;;;6114776;23;20448;-89
2022/02/07 04:29:20;;;;;;;27.48;5.50;;;4.70;96.00;;;;;;6163892;23;20021;-90
2022/02/07 04:31:46;;;;;;;27.05;5.95;;;4.60;96.00;;;;;;6164906;23;20013;-89
2022/02/07 04:34:12;;;;;;;31.25;5.38;;;4.60;96.00;;;;;;6167178;23;20043;-90
2022/02/07 04:36:41;;;;;;;26.95;5.10;;;4.70;96.00;;;;;;6095874;23;20053;-90
2022/02/07 04:39:07;;;;;;;28.20;5.38;;;4.60;96.00;;;;;;6142176;23;20018;-86
2022/02/07 04:41:32;;;;;;;27.17;5.82;;;4.70;96.00;;;;;;6140435;23;20017;-89
2022/02/07 04:44:07;;;;;;;30.42;5.93;;;4.60;96.00;;;;;;6138650;23;20053;-89
2022/02/07 04:54:48;;;;;;;30.30;6.63;;;4.60;96.00;;;;;;6143652;23;20033;-90
2022/02/07 04:57:41;;;;;;;39.38;5.85;;;4.60;96.00;;;;;;6120229;23;20037;-87
2022/02/07 05:03:11;;;;;;;33.72;6.15;;;4.70;96.00;;;;;;6137081;23;20022;-87
2022/02/07 05:16:15;;;;;;;27.20;5.38;;;4.70;96.00;;;;;;6116037;23;20026;-88
2022/02/07 05:18:41;;;;;;;30.35;5.18;;;4.70;96.00;;;;;;6137113;23;20459;-88
2022/02/07 05:21:07;;;;;;;28.40;4.97;;;4.70;96.00;;;;;;6196645;23;20024;-90
2022/02/07 05:23:32;;;;;;;25.38;6.28;;;4.70;96.00;;;;;;6142171;23;20580;-88
2022/02/07 05:25:58;;;;;;;30.38;6.68;;;4.70;96.00;;;;;;6117990;23;20020;-85
2022/02/07 05:28:24;;;;;;;29.30;6.38;;;4.70;96.00;;;;;;6142445;23;20140;-88
2022/02/07 05:30:49;;;;;;;27.42;6.43;;;4.70;96.00;;;;;;6167545;23;20024;-88
2022/02/07 05:33:15;;;;;;;26.45;6.07;;;4.70;96.00;;;;;;6141750;23;20048;-87
2022/02/07 05:35:41;;;;;;;24.20;5.97;;;4.70;96.00;;;;;;6117531;23;20013;-88
2022/02/07 05:38:09;;;;;;;28.60;6.00;;;4.70;96.00;;;;;;6142133;23;20024;-89
2022/02/07 05:40:54;;;;;;;24.25;5.57;;;4.70;96.00;;;;;;6142119;23;20020;-88
2022/02/07 05:43:20;;;;;;;27.23;4.72;;;4.70;96.00;;;;;;6145787;23;20068;-88
2022/02/07 05:45:46;;;;;;;32.97;6.40;;;4.70;96.00;;;;;;6166649;23;20016;-88
2022/02/07 05:48:11;;;;;;;32.88;5.18;;;4.70;96.10;;;;;;6117231;23;20096;-88
2022/02/07 05:50:37;;;;;;;23.02;4.88;;;4.70;96.00;;;;;;6166678;23;20015;-89
2022/02/07 05:53:03;;;;;;;28.33;5.07;;;4.70;96.00;;;;;;6142455;23;20017;-90
2022/02/07 05:55:28;;;;;;;28.02;5.60;;;4.80;96.10;;;;;;6117527;23;20336;-86
2022/02/07 05:57:54;;;;;;;25.17;4.35;;;4.80;96.10;;;;;;6166815;23;20063;-90
2022/02/07 06:00:20;;;;;;;24.48;5.40;;;4.80;96.10;;;;;;6167231;23;20012;-89
2022/02/07 06:02:46;;;;;;;30.10;5.55;;;4.80;96.10;;;;;;6167437;23;20019;-88
2022/02/07 06:05:11;;;;;;;26.10;5.03;;;4.80;96.10;;;;;;6143049;23;20020;-88
2022/02/07 06:07:37;;;;;;;25.58;4.53;;;4.80;96.10;;;;;;6117300;23;20013;-89
2022/02/07 06:10:04;;;;;;;18.17;4.22;;;4.90;96.00;;;;;;6141891;23;20105;-88
2022/02/07 06:12:37;;;;;;;23.83;4.85;;;4.80;96.00;;;;;;6167072;23;20316;-87
2022/02/07 06:15:03;;;;;;;21.23;4.57;;;4.90;96.00;;;;;;6166170;23;20513;-87
2022/02/07 06:17:29;;;;;;;21.58;4.90;;;4.80;95.90;;;;;;6141094;23;20097;-88
2022/02/07 06:19:57;;;;;;;21.80;5.10;;;4.90;96.00;;;;;;6141936;23;20017;-87
2022/02/07 06:22:22;;;;;;;29.30;5.07;;;4.80;95.90;;;;;;6166395;23;20013;-87
2022/02/07 06:24:48;;;;;;;25.13;4.03;;;4.80;95.90;;;;;;6166527;23;20019;-89
2022/02/07 06:27:14;;;;;;;18.65;4.93;;;4.80;96.00;;;;;;6166954;23;20017;-89
2022/02/07 06:29:42;;;;;;;21.58;5.00;;;4.80;96.00;;;;;;6142512;23;20028;-88
2022/02/07 06:32:08;;;;;;;24.48;6.13;;;4.80;95.90;;;;;;6143551;23;20024;-91
2022/02/07 06:34:39;;;;;;;24.55;4.88;;;4.80;95.90;;;;;;6143998;23;20017;-90
2022/02/07 06:37:06;;;;;;;25.38;4.43;;;4.80;95.90;;;;;;6168849;23;20055;-79
2022/02/07 06:39:31;;;;;;;20.52;4.38;;;4.80;95.90;;;;;;6191866;23;20333;-84
2022/02/07 06:41:57;;;;;;;32.53;4.93;;;4.80;95.90;;;;;;6140941;23;20052;-82
2022/02/07 06:44:23;;;;;;;23.15;5.10;;;4.80;95.90;;;;;;6143087;23;20032;-80
2022/02/07 06:46:52;;;;;;;22.13;4.63;;;4.80;95.80;;;;;;6168502;23;20428;-86
2022/02/07 06:49:17;;;;;;;29.15;5.30;;;4.80;95.80;;;;;;6146162;23;20101;-84
2022/02/07 06:51:43;;;;;;;21.33;4.93;;;4.80;95.80;;;;;;6171266;23;20053;-86
2022/02/07 06:54:15;;;;;;;21.00;4.20;;;4.80;95.80;;;;;;6160589;23;20012;-88
2022/02/07 06:56:45;;;;;;;16.25;3.92;;;4.80;95.80;;;;;;6185838;23;20021;-90
2022/02/07 06:59:17;;;;;;;15.88;4.28;;;4.70;95.70;;;;;;6187331;23;20002;-91
2022/02/07 07:01:43;;;;;;;14.97;3.07;;;4.80;95.70;;;;;;6139683;23;20007;-91
2022/02/07 07:04:11;;;;;;;20.30;4.03;;;4.70;95.70;;;;;;6173821;23;20126;-88
2022/02/07 07:06:38;;;;;;;14.95;4.30;;;4.60;95.60;;;;;;6126865;23;20035;-89
2022/02/07 07:09:07;;;;;;;16.05;4.00;;;4.70;95.60;;;;;;6149450;23;20028;-89
2022/02/07 07:11:33;;;;;;;20.20;3.65;;;4.70;95.60;;;;;;6177206;23;20297;-84
2022/02/07 07:14:06;;;;;;;23.52;4.65;;;4.70;95.60;;;;;;6147360;23;20076;-82
2022/02/07 07:19:07;;;;;;;16.67;3.42;;;4.70;95.60;;;;;;6176538;23;20017;-87
2022/02/07 07:21:34;;;;;;;21.10;4.22;;;4.60;95.60;;;;;;6151725;23;20017;-88
2022/02/07 07:24:00;;;;;;;25.25;5.50;;;4.60;95.60;;;;;;6153763;23;20020;-86
2022/02/07 07:26:34;;;;;;;18.92;3.95;;;4.60;95.60;;;;;;6178115;23;20506;-86
2022/02/07 07:29:03;;;;;;;21.25;4.40;;;4.60;95.60;;;;;;6179341;23;20024;-86
2022/02/07 07:31:30;;;;;;;21.08;4.57;;;4.60;95.60;;;;;;6150172;23;20013;-85
2022/02/07 07:33:58;;;;;;;20.63;4.93;;;4.70;95.60;;;;;;6177253;23;20021;-85
2022/02/07 07:36:27;;;;;;;26.58;4.78;;;4.60;95.50;;;;;;6176584;23;20027;-86
2022/02/07 07:38:55;;;;;;;24.80;6.50;;;4.60;95.50;;;;;;6177131;23;20037;-85
2022/02/07 07:41:21;;;;;;;27.13;4.93;;;4.60;95.60;;;;;;6175758;23;20047;-87
2022/02/07 07:43:49;;;;;;;25.25;4.85;;;4.60;95.60;;;;;;6152141;23;20013;-87
2022/02/07 07:46:23;;;;;;;25.23;4.45;;;4.60;95.60;;;;;;6154684;23;20047;-86
2022/02/07 07:48:58;;;;;;;23.63;3.95;;;4.60;95.60;;;;;;6182724;23;20020;-86
2022/02/07 07:54:43;;;;;;;21.83;5.40;;;4.70;95.70;;;;;;6161255;23;20335;-86
2022/02/07 08:02:51;;;;;;;22.17;3.97;;;4.70;95.70;;;;;;6160086;23;20017;-90
2022/02/07 08:05:43;;;;;;;29.08;7.20;;;4.70;95.70;;;;;;6188180;23;20034;-84
2022/02/07 08:08:37;;;;;;;24.80;6.03;;;4.70;95.70;;;;;;6168286;23;20020;-84
2022/02/07 08:11:08;;;;;;;24.67;4.82;;;4.80;95.70;;;;;;6165596;23;20021;-85
2022/02/07 08:13:34;;;;;;;27.90;5.95;;;4.80;95.80;;;;;;6185915;23;20017;-86
2022/02/07 08:16:00;;;;;;;28.98;5.55;;;4.90;95.80;;;;;;6158839;23;20288;-86
2022/02/07 08:18:26;;;;;;;22.38;4.43;;;4.90;95.80;;;;;;6182301;23;20013;-87
2022/02/07 08:20:57;;;;;;;24.95;5.63;;;4.90;95.80;;;;;;6153382;23;20068;-86
2022/02/07 08:23:23;;;;;;;27.03;5.23;;;4.90;95.80;;;;;;6150385;23;20036;-86
2022/02/07 08:25:49;;;;;;;25.55;5.22;;;5.00;95.80;;;;;;6146017;23;20127;-86
2022/02/07 08:28:15;;;;;;;26.55;5.18;;;5.00;95.80;;;;;;6121373;23;20099;-86
2022/02/07 08:30:41;;;;;;;29.48;6.50;;;5.00;95.80;;;;;;6121188;23;20049;-86
2022/02/07 08:33:07;;;;;;;31.85;6.30;;;5.00;95.80;;;;;;6145324;23;20013;-86
2022/02/07 08:35:35;;;;;;;26.05;5.22;;;5.00;95.80;;;;;;6145438;23;20040;-86
2022/02/07 08:38:09;;;;;;;26.63;5.45;;;5.00;95.90;;;;;;6121580;23;20047;-85
2022/02/07 08:40:40;;;;;;;27.58;5.55;;;5.00;95.80;;;;;;6170056;23;20013;-86
2022/02/07 08:43:10;;;;;;;25.30;5.07;;;5.10;95.90;;;;;;6170385;23;20016;-86
2022/02/07 08:45:36;;;;;;;35.35;5.97;;;5.10;95.90;;;;;;6170478;23;20490;-85
2022/02/07 08:48:05;;;;;;;30.40;6.05;;;5.10;95.90;;;;;;6170342;23;20528;-86
2022/02/07 08:50:31;;;;;;;24.35;5.22;;;5.10;95.90;;;;;;6169748;23;20332;-87
2022/02/07 08:53:01;;;;;;;31.10;5.25;;;5.10;95.90;;;;;;6144469;23;20017;-85
2022/02/07 08:55:35;;;;;;;29.05;5.18;;;5.10;95.90;;;;;;6170581;23;20013;-86
2022/02/07 08:58:07;;;;;;;31.33;5.43;;;5.20;95.90;;;;;;6172030;23;20020;-87
2022/02/07 09:05:46;;;;;;;23.30;4.53;;;5.20;95.90;;;;;;6145361;23;20375;-85
2022/02/07 09:10:43;;;;;;;22.27;5.22;;;5.30;95.90;;;;;;6146304;23;20068;-85
2022/02/07 09:13:09;;;;;;;26.70;7.32;;;5.30;95.90;;;;;;6172712;23;20121;-84
2022/02/07 09:15:54;;;;;;;24.77;4.38;;;5.40;95.90;;;;;;6172838;23;20044;-86
2022/02/07 09:18:20;;;;;;;27.27;6.75;;;5.40;95.90;;;;;;6127587;23;20041;-85
2022/02/07 09:20:47;;;;;;;32.58;6.22;;;5.50;95.90;;;;;;6174698;23;20394;-86
2022/02/07 09:23:13;;;;;;;28.50;6.53;;;5.50;95.90;;;;;;6174375;23;20013;-87
2022/02/07 09:25:38;;;;;;;32.25;6.53;;;5.50;95.90;;;;;;6151545;23;20013;-85
2022/02/07 09:28:16;;;;;;;30.75;5.43;;;5.60;95.90;;;;;;6150706;23;20048;-86
2022/02/07 09:30:41;;;;;;;34.95;6.82;;;5.60;95.90;;;;;;6149456;23;20032;-85
2022/02/07 09:33:08;;;;;;;29.40;5.90;;;5.70;95.90;;;;;;6149864;23;20013;-85
2022/02/07 09:35:35;;;;;;;27.30;5.68;;;5.70;95.80;;;;;;6151909;23;20076;-86
2022/02/07 09:38:01;;;;;;;28.10;7.47;;;5.70;95.80;;;;;;6174912;23;20106;-86
2022/02/07 09:40:27;;;;;;;25.77;5.53;;;5.80;95.80;;;;;;6175764;23;20013;-85
2022/02/07 09:42:58;;;;;;;35.83;7.55;;;5.80;95.80;;;;;;6149091;23;20024;-85
2022/02/07 09:45:36;;;;;;;29.33;6.22;;;5.80;95.80;;;;;;6152093;23;20047;-87
2022/02/07 09:48:06;;;;;;;29.75;6.45;;;5.90;95.70;;;;;;6151626;23;20044;-85
2022/02/07 09:50:32;;;;;;;29.73;6.32;;;6.00;95.70;;;;;;6151083;23;20100;-86
2022/02/07 09:53:01;;;;;;;26.63;6.20;;;6.00;95.70;;;;;;6174866;23;20092;-85
2022/02/07 09:55:49;;;;;;;30.08;5.55;;;6.10;95.70;;;;;;6149815;23;20428;-85
2022/02/07 09:58:15;;;;;;;30.33;6.10;;;6.10;95.60;;;;;;6177563;23;20421;-85
2022/02/07 10:00:47;;;;;;;30.70;5.55;;;6.20;95.60;;;;;;6151508;23;20023;-84
2022/02/07 10:03:35;;;;;;;26.85;6.82;;;6.30;95.50;;;;;;6173219;23;20017;-85
2022/02/07 10:06:12;;;;;;;26.92;5.35;;;6.30;95.50;;;;;;6152231;23;20017;-86
2022/02/07 10:08:51;;;;;;;27.92;5.05;;;6.40;95.40;;;;;;6154995;23;20009;-85
2022/02/07 10:11:35;;;;;;;27.70;5.50;;;6.50;95.30;;;;;;6152816;23;20017;-86
2022/02/07 10:14:20;;;;;;;29.98;5.60;;;6.60;95.30;;;;;;6199383;23;20040;-86
2022/02/07 10:16:56;;;;;;;21.38;5.28;;;6.70;95.20;;;;;;6155318;23;20013;-84
2022/02/07 10:19:40;;;;;;;33.75;6.30;;;6.70;95.00;;;;;;6151925;23;20047;-85
2022/02/07 10:39:11;;;;;;;22.33;5.10;;;7.60;94.40;;;;;;6149938;23;20466;-85
2022/02/07 10:44:49;;;;;;;23.40;5.43;;;8.00;94.10;;;;;;6146560;23;20017;-85
2022/02/07 10:47:24;;;;;;;27.25;5.85;;;8.10;93.80;;;;;;6143485;23;20017;-85
2022/02/07 10:49:59;;;;;;;30.20;5.47;;;8.30;93.70;;;;;;6171194;23;20020;-85
2022/02/07 10:52:25;;;;;;;30.33;5.65;;;8.30;93.40;;;;;;6168735;23;20092;-85
2022/02/07 10:54:51;;;;;;;27.98;5.75;;;8.40;93.30;;;;;;6120268;23;20048;-85
2022/02/07 10:57:21;;;;;;;25.23;6.25;;;8.60;93.20;;;;;;6143196;23;20021;-85
2022/02/07 10:59:49;;;;;;;32.90;5.43;;;8.70;93.00;;;;;;6145374;23;20048;-85
2022/02/07 11:05:05;;;;;;;26.67;6.18;;;8.90;92.60;;;;;;6168418;23;20055;-87
2022/02/07 11:07:33;;;;;;;32.88;5.95;;;9.00;92.20;;;;;;6121157;23;20016;-85
2022/02/07 11:10:18;;;;;;;26.60;5.55;;;9.10;91.80;;;;;;6144922;23;20023;-85
2022/02/07 11:13:43;;;;;;;28.73;6.03;;;9.20;91.50;;;;;;6150595;23;20065;-84
2022/02/07 11:15:36;;;;;;;25.85;5.78;;;9.50;91.60;;;;;;6152999;23;20025;-85
2022/02/07 11:21:57;;;;;;;22.55;4.70;;;9.80;90.90;;;;;;6121528;23;20083;-82
2022/02/07 11:24:26;;;;;;;24.15;4.40;;;10.10;90.60;;;;;;6128079;23;20021;-85
2022/02/07 11:26:51;;;;;;;29.48;6.07;;;10.20;90.20;;;;;;6164656;23;20410;-83
2022/02/07 11:29:38;;;;;;;25.90;5.30;;;10.30;90.40;;;;;;6142888;23;20021;-82
2022/02/07 11:32:05;;;;;;;24.67;5.00;;;10.40;88.50;;;;;;6167466;23;20586;-80
2022/02/07 11:34:43;;;;;;;24.15;4.72;;;10.70;89.50;;;;;;6167578;23;20432;-84
2022/02/07 11:37:17;;;;;;;19.88;4.78;;;11.20;88.20;;;;;;6167980;23;20021;-84
2022/02/07 11:39:43;;;;;;;27.27;5.25;;;11.50;86.60;;;;;;6167264;23;20515;-83
2022/02/07 11:42:12;;;;;;;25.42;4.80;;;11.50;86.00;;;;;;6142472;23;20025;-85
2022/02/07 11:44:45;;;;;;;26.48;5.95;;;11.40;85.90;;;;;;6143619;23;20053;-84
2022/02/07 11:47:31;;;;;;;21.30;4.63;;;11.60;85.60;;;;;;6167247;23;20055;-83
2022/02/07 11:50:03;;;;;;;24.88;4.25;;;11.80;82.90;;;;;;6143506;23;20096;-84
2022/02/07 11:52:42;;;;;;;19.38;4.70;;;12.00;84.10;;;;;;6144274;23;20044;-84
2022/02/07 11:55:10;;;;;;;18.17;5.55;;;12.10;83.40;;;;;;6167640;23;20021;-79
2022/02/07 11:57:38;;;;;;;27.08;5.65;;;12.00;83.40;;;;;;6142696;23;20019;-84
2022/02/07 12:00:11;;;;;;;28.63;4.90;;;12.00;83.40;;;;;;6119918;23;20076;-84
2022/02/07 12:02:37;;;;;;;21.92;6.00;;;12.70;83.20;;;;;;6144388;23;20013;-86
2022/02/07 12:05:08;;;;;;;21.02;4.30;;;13.70;81.60;;;;;;6121516;23;20009;-86
2022/02/07 12:07:37;;;;;;;22.13;4.38;;;14.50;78.80;;;;;;6119170;23;20443;-85
2022/02/07 12:12:42;;;;;;;20.85;4.78;;;16.40;73.80;;;;;;6146130;23;20091;-85
2022/02/07 12:15:38;;;;;;;22.33;4.50;;;17.20;71.90;;;;;;6142928;23;20021;-84
2022/02/07 12:18:13;;;;;;;19.27;4.20;;;17.70;70.60;;;;;;6119566;23;20032;-82
2022/02/07 12:20:39;;;;;;;20.92;5.05;;;18.20;68.40;;;;;;6140559;23;20072;-83
2022/02/07 12:23:08;;;;;;;20.60;4.30;;;18.50;67.70;;;;;;6142708;23;20083;-84
2022/02/07 12:25:47;;;;;;;17.42;3.83;;;18.60;66.80;;;;;;6141706;23;20096;-83
2022/02/07 12:31:11;;;;;;;18.47;3.70;;;18.30;65.30;;;;;;6145901;23;20020;-82
2022/02/07 12:33:38;;;;;;;28.15;4.70;;;18.10;66.10;;;;;;6142990;23;20248;-85
2022/02/07 12:36:04;;;;;;;16.77;3.72;;;18.00;66.30;;;;;;6167116;23;20101;-80
2022/02/07 12:38:33;;;;;;;17.15;3.83;;;17.40;66.30;;;;;;6117455;23;20467;-83
2022/02/07 12:40:59;;;;;;;19.13;3.50;;;16.90;66.80;;;;;;6167330;23;20024;-82
2022/02/07 12:43:25;;;;;;;14.68;4.13;;;16.30;67.20;;;;;;6118170;23;20016;-86
2022/02/07 12:45:51;;;;;;;15.65;4.25;;;15.70;67.80;;;;;;6141976;23;20464;-84
2022/02/07 12:48:22;;;;;;;18.67;3.78;;;15.20;68.90;;;;;;6117726;23;20064;-84
2022/02/07 12:50:53;;;;;;;13.48;3.38;;;14.70;69.20;;;;;;6166001;23;20037;-83
2022/02/07 12:53:19;;;;;;;20.35;3.50;;;14.30;69.60;;;;;;6166210;23;20020;-82
2022/02/07 12:55:46;;;;;;;23.08;5.10;;;14.20;70.10;;;;;;6117052;23;20020;-82
2022/02/07 12:58:13;;;;;;;18.77;4.05;;;14.90;69.20;;;;;;6142515;23;20021;-83
2022/02/07 13:00:38;;;;;;;20.83;4.07;;;15.30;68.20;;;;;;6141278;23;20076;-82
2022/02/07 13:03:04;;;;;;;16.70;3.67;;;15.90;66.90;;;;;;6167693;23;20021;-82
2022/02/07 13:05:30;;;;;;;15.82;4.30;;;16.00;66.60;;;;;;6143103;23;20020;-83
2022/02/07 13:07:57;;;;;;;15.65;3.35;;;16.40;65.80;;;;;;6119131;23;20340;-81
2022/02/07 13:10:24;;;;;;;15.38;3.13;;;16.80;64.50;;;;;;6168386;23;20017;-81
2022/02/07 13:15:23;;;;;;;15.10;3.50;;;16.90;62.80;;;;;;6143635;23;20025;-79
2022/02/07 13:17:54;;;;;;;21.30;4.88;;;17.00;61.90;;;;;;6118129;23;20016;-80
2022/02/07 13:20:22;;;;;;;15.73;3.50;;;17.20;61.50;;;;;;6142196;23;20024;-81
2022/02/07 13:22:48;;;;;;;14.23;3.65;;;17.30;61.10;;;;;;6191342;23;20591;-81
2022/02/07 13:25:13;;;;;;;11.55;3.78;;;17.60;60.60;;;;;;6141443;23;20056;-80
2022/02/07 13:27:40;;;;;;;16.23;3.28;;;17.70;60.00;;;;;;6141913;23;20017;-81
2022/02/07 13:30:15;;;;;;;15.55;3.55;;;17.70;59.80;;;;;;6143564;23;20054;-80
2022/02/07 13:32:40;;;;;;;13.98;3.17;;;17.30;59.80;;;;;;6118637;23;20100;-82
2022/02/07 13:35:12;;;;;;;11.57;2.97;;;17.00;60.00;;;;;;6143412;23;20021;-80
2022/02/07 13:37:39;;;;;;;18.92;3.88;;;16.70;60.00;;;;;;6168019;23;20021;-82
2022/02/07 13:40:21;;;;;;;15.98;3.40;;;16.80;60.80;;;;;;6142660;23;20474;-77
2022/02/07 13:42:50;;;;;;;13.53;2.77;;;17.10;60.00;;;;;;6118517;23;20470;-82
2022/02/07 13:45:21;;;;;;;12.43;3.78;;;17.30;59.70;;;;;;6166845;23;20263;-79
2022/02/07 13:47:53;;;;;;;14.07;3.50;;;17.30;59.60;;;;;;6142117;23;20028;-82
2022/02/07 13:50:21;;;;;;;13.75;3.97;;;17.30;59.40;;;;;;6142889;23;20048;-80
2022/02/07 13:53:03;;;;;;;14.10;3.70;;;17.30;59.30;;;;;;6165795;23;20470;-80
2022/02/07 13:55:39;;;;;;;12.93;3.42;;;17.20;58.40;;;;;;6144120;23;20071;-81
2022/02/07 13:58:11;;;;;;;15.45;3.58;;;16.80;59.00;;;;;;6141529;23;20441;-80
2022/02/07 14:00:46;;;;;;;16.10;3.28;;;16.40;60.10;;;;;;6141914;23;20068;-80
2022/02/07 14:03:19;;;;;;;14.25;3.40;;;16.50;60.20;;;;;;6168143;23;20091;-81
2022/02/07 14:05:48;;;;;;;16.17;3.25;;;16.90;58.70;;;;;;6117092;23;20017;-80
2022/02/07 14:08:15;;;;;;;13.75;3.10;;;17.00;58.90;;;;;;6141562;23;20027;-79
2022/02/07 14:10:42;;;;;;;11.50;3.70;;;17.40;59.00;;;;;;6166650;23;20023;-81
2022/02/07 14:13:15;;;;;;;18.70;4.35;;;16.90;58.90;;;;;;6166966;23;20064;-80
2022/02/07 14:15:44;;;;;;;18.27;4.70;;;16.40;59.20;;;;;;6143776;23;20064;-84
2022/02/07 14:18:13;;;;;;;16.40;4.07;;;16.10;59.70;;;;;;6143892;23;20387;-86
2022/02/07 14:20:39;;;;;;;20.58;4.38;;;15.60;60.60;;;;;;6142991;23;20072;-86
2022/02/07 14:23:06;;;;;;;21.13;3.67;;;15.40;61.00;;;;;;6167100;23;20052;-83
2022/02/07 14:25:32;;;;;;;13.60;3.25;;;15.20;61.30;;;;;;6142636;23;20017;-85
2022/02/07 14:27:59;;;;;;;16.90;3.55;;;14.80;61.70;;;;;;6142255;23;20101;-83
2022/02/07 14:30:26;;;;;;;16.73;4.57;;;14.50;61.90;;;;;;6142359;23;20020;-84
2022/02/07 14:32:52;;;;;;;14.20;4.00;;;14.20;62.70;;;;;;6165681;23;20293;-81
2022/02/07 14:35:18;;;;;;;16.08;3.75;;;13.90;63.30;;;;;;6142336;23;20103;-83
2022/02/07 14:37:44;;;;;;;15.48;3.35;;;13.70;64.00;;;;;;6166344;23;20016;-81
2022/02/07 14:40:10;;;;;;;14.80;3.45;;;13.40;64.20;;;;;;6166078;23;20021;-82
2022/02/07 14:42:36;;;;;;;15.60;3.60;;;13.20;64.40;;;;;;6167055;23;20021;-89
2022/02/07 14:45:15;;;;;;;14.40;3.60;;;13.00;64.80;;;;;;6192057;23;20436;-85
2022/02/07 14:50:23;;;;;;;18.70;3.47;;;12.80;65.50;;;;;;6143943;23;20343;-81
2022/02/07 14:52:50;;;;;;;15.70;3.20;;;12.60;65.70;;;;;;6144787;23;20017;-79
2022/02/07 14:55:15;;;;;;;11.07;3.55;;;12.50;67.00;;;;;;6169033;23;20013;-80
2022/02/07 14:57:41;;;;;;;15.27;3.28;;;12.50;66.40;;;;;;6169055;23;20028;-86
2022/02/07 15:00:10;;;;;;;15.75;3.40;;;12.40;66.50;;;;;;6168822;23;20013;-78
2022/02/07 15:02:35;;;;;;;11.05;3.22;;;12.40;66.70;;;;;;6118442;23;20025;-84
2022/02/07 15:05:02;;;;;;;20.17;3.60;;;12.30;67.00;;;;;;6170894;23;20044;-83
2022/02/07 15:07:27;;;;;;;15.45;3.33;;;12.20;67.50;;;;;;6149866;23;20017;-84
2022/02/07 15:09:54;;;;;;;19.73;3.60;;;12.10;68.00;;;;;;6178182;23;20017;-81
2022/02/07 15:12:20;;;;;;;12.73;2.65;;;12.00;68.20;;;;;;6180403;23;20020;-82
2022/02/07 15:14:49;;;;;;;15.02;3.50;;;11.90;68.40;;;;;;6156659;23;20028;-88
2022/02/07 15:17:19;;;;;;;16.90;3.40;;;11.70;68.40;;;;;;6155790;23;20088;-82
2022/02/07 15:19:45;;;;;;;13.80;2.80;;;11.50;68.50;;;;;;6148121;23;20017;-84
2022/02/07 15:22:10;;;;;;;15.60;3.03;;;11.40;68.80;;;;;;6119088;23;20092;-86
2022/02/07 15:24:36;;;;;;;17.30;3.00;;;11.30;69.30;;;;;;6144878;23;20018;-85
2022/02/07 15:27:03;;;;;;;18.48;3.85;;;11.20;69.40;;;;;;6093312;23;20025;-81
2022/02/07 15:29:28;;;;;;;15.68;3.42;;;11.00;69.90;;;;;;6119887;23;20065;-82